createdAt,value
2022-10-09T00:03:12.985Z,6.13
2022-10-09T00:06:54.812Z,4.82
2022-10-09T00:10:45.438Z,5.22
2022-10-09T00:14:27.311Z,5.68
2022-10-09T00:18:11.066Z,5.32
2022-10-09T00:21:53.106Z,4.90
2022-10-09T00:25:38.621Z,4.45
2022-10-09T00:29:20.480Z,4.28
2022-10-09T00:33:02.286Z,4.88
2022-10-09T00:36:44.204Z,3.90
2022-10-09T00:40:26.060Z,3.55
2022-10-09T00:44:45.762Z,3.83
2022-10-09T00:48:27.863Z,3.90
2022-10-09T00:52:09.727Z,3.03
2022-10-09T00:55:52.417Z,4.35
2022-10-09T00:59:34.464Z,5.25
2022-10-09T01:03:16.371Z,5.80
2022-10-09T01:07:03.959Z,5.03
2022-10-09T01:11:01.450Z,5.38
2022-10-09T01:15:08.508Z,4.47
2022-10-09T01:23:09.563Z,4.40
2022-10-09T01:27:16.004Z,4.10
2022-10-09T01:31:02.697Z,4.25
2022-10-09T01:34:46.173Z,3.42
2022-10-09T01:38:28.992Z,3.53
2022-10-09T01:42:13.772Z,3.67
2022-10-09T01:46:31.951Z,4.35
2022-10-09T01:50:34.628Z,3.53
2022-10-09T01:54:27.403Z,3.65
2022-10-09T01:58:32.383Z,3.10
2022-10-09T02:02:14.736Z,3.35
2022-10-09T02:05:57.894Z,3.75
2022-10-09T02:09:40.984Z,3.78
2022-10-09T02:13:23.393Z,2.80
2022-10-09T02:17:14.651Z,2.35
2022-10-09T02:21:01.257Z,2.72
2022-10-09T02:24:44.334Z,3.13
2022-10-09T02:28:26.425Z,3.75
2022-10-09T02:32:08.695Z,3.83
2022-10-09T02:35:50.573Z,3.60
2022-10-09T02:39:32.461Z,3.08
2022-10-09T02:43:14.275Z,3.40
2022-10-09T02:46:56.183Z,3.50
2022-10-09T02:50:38.223Z,3.75
2022-10-09T02:54:20.132Z,3.55
2022-10-09T02:58:02.355Z,4.35
2022-10-09T03:01:45.188Z,4.20
2022-10-09T03:05:27.048Z,4.70
2022-10-09T03:09:09.052Z,3.33
2022-10-09T03:12:51.361Z,3.08
2022-10-09T03:16:33.639Z,2.78
2022-10-09T03:20:15.672Z,3.25
2022-10-09T03:23:57.523Z,3.20
2022-10-09T03:27:39.439Z,3.75
2022-10-09T03:31:53.363Z,3.60
2022-10-09T03:35:25.794Z,3.90
2022-10-09T03:39:07.966Z,3.67
2022-10-09T03:42:50.177Z,3.38
2022-10-09T03:46:32.450Z,3.47
2022-10-09T03:50:14.328Z,2.97
2022-10-09T03:53:56.183Z,3.42
2022-10-09T03:57:38.150Z,3.03
2022-10-09T04:01:20.053Z,2.80
2022-10-09T04:05:01.904Z,3.00
2022-10-09T04:08:43.707Z,3.28
2022-10-09T04:12:25.600Z,3.50
2022-10-09T04:16:12.575Z,3.50
2022-10-09T04:19:54.548Z,3.00
2022-10-09T04:23:36.402Z,3.05
2022-10-09T04:27:18.397Z,3.28
2022-10-09T04:31:01.762Z,3.10
2022-10-09T04:34:43.708Z,3.22
2022-10-09T04:38:25.649Z,3.10
2022-10-09T04:42:07.763Z,2.70
2022-10-09T04:45:49.664Z,3.40
2022-10-09T04:49:31.721Z,3.65
2022-10-09T04:53:13.923Z,2.90
2022-10-09T04:56:55.757Z,3.70
2022-10-09T05:00:42.764Z,2.97
2022-10-09T05:04:24.766Z,3.63
2022-10-09T05:08:06.653Z,3.97
2022-10-09T05:11:48.523Z,3.05
2022-10-09T05:15:30.641Z,3.92
2022-10-09T05:19:12.478Z,3.58
2022-10-09T05:22:54.284Z,3.97
2022-10-09T05:26:36.119Z,3.22
2022-10-09T05:30:18.048Z,3.28
2022-10-09T05:34:01.846Z,3.20
2022-10-09T05:37:46.870Z,3.22
2022-10-09T05:41:32.388Z,3.72
2022-10-09T05:45:14.377Z,3.65
2022-10-09T05:49:01.922Z,3.20
2022-10-09T05:52:43.725Z,3.92
2022-10-09T05:56:38.872Z,3.00
2022-10-09T06:00:20.732Z,3.03
2022-10-09T06:04:03.858Z,3.45
2022-10-09T06:07:47.152Z,3.38
2022-10-09T06:11:31.893Z,3.17
2022-10-09T06:15:14.376Z,3.63
2022-10-09T06:18:56.903Z,2.70
2022-10-09T06:22:38.753Z,3.65
2022-10-09T06:26:21.903Z,3.15
2022-10-09T06:30:04.077Z,2.78
2022-10-09T06:33:47.613Z,3.42
2022-10-09T06:37:29.435Z,3.78
2022-10-09T06:41:13.664Z,3.28
2022-10-09T06:44:55.511Z,3.72
2022-10-09T06:48:39.274Z,3.45
2022-10-09T06:52:21.100Z,2.83
2022-10-09T06:56:03.471Z,3.40
2022-10-09T06:59:45.812Z,3.58
2022-10-09T07:03:27.643Z,3.15
2022-10-09T07:07:09.695Z,3.85
2022-10-09T07:10:51.474Z,4.10
2022-10-09T07:14:33.319Z,3.47
2022-10-09T07:18:16.247Z,3.67
2022-10-09T07:21:58.065Z,3.55
2022-10-09T07:25:39.902Z,3.47
2022-10-09T07:29:21.728Z,3.40
2022-10-09T07:33:03.782Z,3.25
2022-10-09T07:36:45.600Z,3.33
2022-10-09T07:40:27.408Z,3.45
2022-10-09T07:44:10.484Z,4.50
2022-10-09T07:47:52.274Z,4.75
2022-10-09T07:51:34.147Z,3.28
2022-10-09T07:55:16.031Z,3.78
2022-10-09T07:59:00.453Z,3.75
2022-10-09T08:02:42.511Z,3.65
2022-10-09T08:06:24.891Z,4.05
2022-10-09T08:10:07.209Z,4.05
2022-10-09T08:13:50.095Z,3.95
2022-10-09T08:17:31.967Z,3.60
2022-10-09T08:21:16.465Z,3.42
2022-10-09T08:24:58.273Z,3.00
2022-10-09T08:28:40.228Z,3.65
2022-10-09T08:32:22.119Z,2.80
2022-10-09T08:36:08.425Z,3.60
2022-10-09T08:39:50.291Z,3.33
2022-10-09T08:43:39.999Z,3.58
2022-10-09T08:47:21.797Z,2.80
2022-10-09T08:51:05.954Z,2.33
2022-10-09T08:54:48.221Z,2.45
2022-10-09T08:58:34.411Z,2.42
2022-10-09T09:02:22.129Z,2.50
2022-10-09T09:06:10.826Z,2.53
2022-10-09T09:10:10.723Z,2.60
2022-10-09T09:14:00.949Z,2.67
2022-10-09T09:18:18.055Z,2.28
2022-10-09T09:22:00.213Z,1.73
2022-10-09T09:25:44.122Z,1.55
2022-10-09T09:29:26.927Z,1.50
2022-10-09T09:33:11.776Z,1.55
2022-10-09T09:36:59.239Z,1.40
2022-10-09T09:40:45.855Z,1.40
2022-10-09T09:44:31.751Z,1.50
2022-10-09T09:48:39.243Z,1.85
2022-10-09T09:52:21.302Z,1.58
2022-10-09T09:56:03.897Z,1.55
2022-10-09T09:59:45.834Z,1.50
2022-10-09T10:03:28.311Z,1.83
2022-10-09T10:07:10.130Z,1.55
2022-10-09T10:10:54.762Z,1.48
2022-10-09T10:14:36.864Z,1.10
2022-10-09T10:18:20.475Z,1.15
2022-10-09T10:22:20.524Z,1.20
2022-10-09T10:26:08.683Z,1.65
2022-10-09T10:29:56.048Z,0.82
2022-10-09T10:33:38.939Z,0.90
2022-10-09T10:37:46.781Z,1.67
2022-10-09T10:41:37.998Z,1.30
2022-10-09T10:45:33.627Z,1.15
2022-10-09T10:49:22.033Z,1.10
2022-10-09T10:53:06.219Z,0.98
2022-10-09T10:57:15.102Z,1.75
2022-10-09T11:01:24.993Z,1.90
2022-10-09T11:05:27.658Z,1.30
2022-10-09T11:09:40.992Z,1.35
2022-10-09T11:13:33.198Z,0.90
2022-10-09T11:17:38.731Z,1.08
2022-10-09T11:21:37.894Z,1.48
2022-10-09T11:25:42.999Z,1.80
2022-10-09T11:29:37.579Z,1.10
2022-10-09T11:33:45.803Z,2.03
2022-10-09T11:37:34.978Z,1.58
2022-10-09T11:41:17.074Z,1.90
2022-10-09T11:45:17.363Z,1.33
2022-10-09T11:49:17.857Z,1.70
2022-10-09T11:53:09.119Z,0.98
2022-10-09T11:56:59.630Z,1.50
2022-10-09T12:00:42.788Z,1.55
2022-10-09T12:04:50.154Z,1.13
2022-10-09T12:08:29.655Z,1.80
2022-10-09T12:12:17.558Z,2.05
2022-10-09T12:16:00.151Z,1.52
2022-10-09T12:19:42.723Z,1.17
2022-10-09T12:23:31.717Z,1.17
2022-10-09T12:27:23.838Z,1.45
2022-10-09T12:31:17.327Z,1.30
2022-10-09T12:35:01.091Z,1.55
2022-10-09T12:38:43.473Z,0.90
2022-10-09T12:42:25.459Z,1.70
2022-10-09T12:46:07.378Z,1.05
2022-10-09T12:50:22.911Z,1.42
2022-10-09T12:54:10.055Z,1.23
2022-10-09T12:57:52.827Z,1.08
2022-10-09T13:01:35.682Z,0.93
2022-10-09T13:05:18.103Z,1.23
2022-10-09T13:09:04.156Z,1.20
2022-10-09T13:12:55.497Z,1.08
2022-10-09T13:16:47.610Z,1.00
2022-10-09T13:20:32.346Z,0.73
2022-10-09T13:24:14.257Z,1.10
2022-10-09T13:27:57.434Z,1.30
2022-10-09T13:31:43.480Z,1.02
2022-10-09T13:35:25.451Z,1.50
2022-10-09T13:39:07.324Z,1.10
2022-10-09T13:43:00.268Z,1.38
2022-10-09T13:46:42.108Z,0.70
2022-10-09T13:50:24.048Z,1.33
2022-10-09T13:54:05.928Z,1.17
2022-10-09T13:57:48.059Z,0.98
2022-10-09T14:01:30.242Z,1.40
2022-10-09T14:05:12.183Z,1.73
2022-10-09T14:08:54.025Z,1.50
2022-10-09T14:12:35.879Z,1.73
2022-10-09T14:16:17.743Z,1.67
2022-10-09T14:19:59.576Z,1.35
2022-10-09T14:23:41.488Z,1.13
2022-10-09T14:27:23.644Z,1.10
2022-10-09T14:31:07.408Z,1.20
2022-10-09T14:34:49.245Z,1.30
2022-10-09T14:38:31.050Z,1.02
2022-10-09T14:42:12.983Z,1.25
2022-10-09T14:46:09.243Z,2.90
2022-10-09T14:53:33.782Z,1.65
2022-10-09T14:57:16.588Z,1.48
2022-10-09T15:00:58.837Z,2.30
2022-10-09T15:04:40.661Z,1.58
2022-10-09T15:08:22.494Z,1.20
2022-10-09T15:12:04.368Z,2.55
2022-10-09T15:15:46.375Z,2.45
2022-10-09T15:19:28.186Z,2.10
2022-10-09T15:23:09.980Z,1.40
2022-10-09T15:26:51.788Z,1.48
2022-10-09T15:30:33.600Z,1.00
2022-10-09T15:34:18.375Z,1.15
2022-10-09T15:38:00.163Z,1.15
2022-10-09T15:41:43.360Z,1.08
2022-10-09T15:45:25.179Z,1.33
2022-10-09T15:49:08.090Z,1.40
2022-10-09T15:52:50.177Z,1.10
2022-10-09T15:56:35.970Z,1.73
2022-10-09T16:00:20.694Z,1.67
2022-10-09T16:04:02.516Z,1.77
2022-10-09T16:07:44.388Z,2.53
2022-10-09T16:11:27.077Z,5.20
2022-10-09T16:15:09.384Z,3.35
2022-10-09T16:18:52.215Z,2.25
2022-10-09T16:22:34.087Z,1.25
2022-10-09T16:26:19.890Z,1.35
2022-10-09T16:30:02.603Z,1.20
2022-10-09T16:33:44.399Z,1.27
2022-10-09T16:37:26.270Z,1.20
2022-10-09T16:41:13.618Z,1.55
2022-10-09T16:44:55.474Z,1.15
2022-10-09T16:48:37.397Z,1.38
2022-10-09T16:52:19.350Z,1.38
2022-10-09T16:56:13.383Z,1.67
2022-10-09T16:59:55.307Z,1.27
2022-10-09T17:03:40.393Z,1.23
2022-10-09T17:07:23.185Z,0.98
2022-10-09T17:11:13.323Z,0.88
2022-10-09T17:14:55.629Z,1.02
2022-10-09T17:18:38.099Z,0.90
2022-10-09T17:22:19.969Z,1.25
2022-10-09T17:26:10.015Z,1.25
2022-10-09T17:29:51.926Z,1.70
2022-10-09T17:33:34.594Z,1.55
2022-10-09T17:37:16.529Z,2.22
2022-10-09T17:41:00.120Z,2.70
2022-10-09T17:44:42.787Z,2.03
2022-10-09T17:48:24.660Z,1.90
2022-10-09T17:52:06.637Z,0.88
2022-10-09T17:55:49.807Z,1.17
2022-10-09T17:59:31.770Z,1.35
2022-10-09T18:03:14.621Z,2.03
2022-10-09T18:06:56.450Z,2.20
2022-10-09T18:10:38.630Z,2.10
2022-10-09T18:14:20.483Z,1.70
2022-10-09T18:18:02.310Z,1.70
2022-10-09T18:21:47.175Z,2.00
2022-10-09T18:25:29.068Z,1.10
2022-10-09T18:29:10.959Z,1.58
2022-10-09T18:32:53.013Z,1.48
2022-10-09T18:36:35.963Z,1.67
2022-10-09T18:40:19.385Z,1.60
2022-10-09T18:44:01.638Z,1.38
2022-10-09T18:47:44.573Z,1.63
2022-10-09T18:51:28.637Z,1.38
2022-10-09T18:55:14.881Z,1.73
2022-10-09T18:58:57.869Z,1.33
2022-10-09T19:06:23.323Z,1.80
2022-10-09T19:10:06.957Z,2.03
2022-10-09T19:13:49.150Z,1.60
2022-10-09T19:17:31.016Z,2.15
2022-10-09T19:21:14.963Z,2.03
2022-10-09T19:24:56.778Z,1.50
2022-10-09T19:28:39.400Z,1.50
2022-10-09T19:32:23.923Z,1.60
2022-10-09T19:36:07.136Z,1.55
2022-10-09T19:39:49.156Z,1.90
2022-10-09T19:43:32.014Z,1.80
2022-10-09T19:47:15.761Z,1.90
2022-10-09T19:50:57.651Z,2.15
2022-10-09T19:54:40.263Z,2.33
2022-10-09T19:58:22.148Z,2.65
2022-10-09T20:02:04.311Z,2.75
2022-10-09T20:05:46.249Z,3.20
2022-10-09T20:09:28.137Z,2.90
2022-10-09T20:13:09.985Z,3.15
2022-10-09T20:16:52.102Z,2.50
2022-10-09T20:20:36.158Z,2.67
2022-10-09T20:24:18.052Z,2.78
2022-10-09T20:27:59.997Z,2.25
2022-10-09T20:31:42.413Z,2.15
2022-10-09T20:35:24.891Z,2.28
2022-10-09T20:39:11.038Z,2.05
2022-10-09T20:42:53.487Z,1.97
2022-10-09T20:46:38.401Z,1.42
2022-10-09T20:54:28.213Z,1.85
2022-10-09T20:58:10.171Z,2.45
2022-10-09T21:01:52.328Z,1.88
2022-10-09T21:05:39.593Z,1.60
2022-10-09T21:09:21.441Z,1.80
2022-10-09T21:13:03.309Z,1.27
2022-10-09T21:16:45.268Z,1.50
2022-10-09T21:20:27.132Z,1.98
2022-10-09T21:24:09.021Z,1.70
2022-10-09T21:27:50.924Z,1.52
2022-10-09T21:31:33.306Z,2.15
2022-10-09T21:35:15.315Z,1.63
2022-10-09T21:38:57.257Z,1.77
2022-10-09T21:42:39.067Z,1.60
2022-10-09T21:46:21.530Z,1.95
2022-10-09T21:50:03.549Z,1.38
2022-10-09T21:53:46.092Z,1.58
2022-10-09T21:57:28.082Z,2.25
2022-10-09T22:01:10.428Z,1.83
2022-10-09T22:04:52.309Z,1.88
2022-10-09T22:08:34.838Z,1.67
2022-10-09T22:12:16.739Z,1.70
2022-10-09T22:15:58.627Z,1.42
2022-10-09T22:19:40.725Z,1.83
2022-10-09T22:23:22.628Z,1.85
2022-10-09T22:27:04.574Z,1.58
2022-10-09T22:30:46.466Z,2.08
2022-10-09T22:34:28.335Z,1.95
2022-10-09T22:38:10.134Z,1.88
2022-10-09T22:41:51.960Z,1.63
2022-10-09T22:45:37.664Z,1.50
2022-10-09T22:49:19.571Z,1.45
2022-10-09T22:53:01.445Z,1.98
2022-10-09T22:56:46.577Z,1.55
2022-10-09T23:00:28.509Z,1.95
2022-10-09T23:04:14.609Z,1.70
2022-10-09T23:07:56.439Z,1.90
2022-10-09T23:11:38.320Z,1.60
2022-10-09T23:15:20.493Z,7.20
2022-10-09T23:19:06.755Z,3.20
2022-10-09T23:22:49.334Z,2.17
2022-10-09T23:26:33.358Z,2.03
2022-10-09T23:30:15.372Z,1.63
2022-10-09T23:33:57.725Z,1.85
2022-10-09T23:37:39.655Z,1.60
2022-10-09T23:41:23.765Z,1.65
2022-10-09T23:45:06.241Z,2.15
2022-10-09T23:48:49.313Z,1.85
2022-10-09T23:52:31.143Z,1.77
2022-10-09T23:56:28.443Z,2.25
